Time,TemperatureF,DewpointF,PressureIn,WindDirection,WindDirectionDegrees,WindSpeedMPH,WindSpeedGustMPH,Humidity,HourlyPrecipIn,Conditions,Clouds,dailyrainin,SoftwareType,DateUTC
2013-01-01 00:02:00,39.0,-99.9,30.35,ESE,112,9.0,11.0,-999,-99.99,,,-99.99,,2013-01-01 08:02:00,
2013-01-01 00:12:00,39.0,-99.9,30.35,ESE,110,9.0,10.0,-999,-99.99,,,-99.99,,2013-01-01 08:12:00,
2013-01-01 00:22:00,39.0,-99.9,30.36,East,100,8.0,11.0,-999,-99.99,,,-99.99,,2013-01-01 08:22:00,
2013-01-01 00:32:00,39.0,-99.9,30.35,East,101,9.0,10.0,-999,-99.99,,,-99.99,,2013-01-01 08:32:00,
2013-01-01 00:42:00,38.0,-99.9,30.35,ESE,104,10.0,12.0,-999,-99.99,,,-99.99,,2013-01-01 08:42:00,
2013-01-01 00:53:00,38.0,-99.9,30.35,ESE,102,11.0,12.0,-999,-99.99,,,-99.99,,2013-01-01 08:53:00,
2013-01-01 01:02:00,38.0,-99.9,30.35,ESE,103,11.0,14.0,-999,-99.99,,,-99.99,,2013-01-01 09:02:00,
2013-01-01 01:12:00,38.0,-99.9,30.35,East,93,9.0,13.0,-999,-99.99,,,-99.99,,2013-01-01 09:12:00,
2013-01-01 01:22:00,39.0,-99.9,30.36,East,88,9.0,13.0,-999,-99.99,,,-99.99,,2013-01-01 09:22:00,
2013-01-01 01:32:00,38.0,-99.9,30.36,East,99,12.0,17.0,-999,-99.99,,,-99.99,,2013-01-01 09:32:00,
2013-01-01 01:42:00,38.0,-99.9,30.36,East,92,11.0,15.0,-999,-99.99,,,-99.99,,2013-01-01 09:42:00,
2013-01-01 01:53:00,38.0,-99.9,30.36,East,94,10.0,14.0,-999,-99.99,,,-99.99,,2013-01-01 09:53:00,
2013-01-01 02:02:00,38.0,-99.9,30.37,East,96,11.0,15.0,-999,-99.99,,,-99.99,,2013-01-01 10:02:00,
2013-01-01 02:12:00,38.0,-99.9,30.37,East,93,11.0,15.0,-999,-99.99,,,-99.99,,2013-01-01 10:12:00,
2013-01-01 02:22:00,38.0,-99.9,30.38,ESE,103,13.0,15.0,-999,-99.99,,,-99.99,,2013-01-01 10:22:00,
2013-01-01 02:33:00,37.0,-99.9,30.38,ESE,102,13.0,16.0,-999,-99.99,,,-99.99,,2013-01-01 10:33:00,
2013-01-01 02:43:00,37.0,-99.9,30.38,East,99,11.0,13.0,-999,-99.99,,,-99.99,,2013-01-01 10:43:00,
2013-01-01 02:53:00,37.0,-99.9,30.38,East,101,12.0,15.0,-999,-99.99,,,-99.99,,2013-01-01 10:53:00,
2013-01-01 03:02:00,37.0,-99.9,30.38,East,96,9.0,11.0,-999,-99.99,,,-99.99,,2013-01-01 11:02:00,
2013-01-01 03:12:00,37.0,-99.9,30.38,East,100,10.0,11.0,-999,-99.99,,,-99.99,,2013-01-01 11:12:00,
2013-01-01 03:23:00,37.0,-99.9,30.38,East,97,9.0,12.0,-999,-99.99,,,-99.99,,2013-01-01 11:23:00,
2013-01-01 03:33:00,37.0,-99.9,30.38,East,96,9.0,13.0,-999,-99.99,,,-99.99,,2013-01-01 11:33:00,
2013-01-01 03:43:00,37.0,-99.9,30.38,East,99,10.0,13.0,-999,-99.99,,,-99.99,,2013-01-01 11:43:00,
2013-01-01 03:53:00,37.0,-99.9,30.38,East,96,8.0,12.0,-999,-99.99,,,-99.99,,2013-01-01 11:53:00,
2013-01-01 04:03:00,37.0,-99.9,30.37,East,97,9.0,13.0,-999,-99.99,,,-99.99,,2013-01-01 12:03:00,
2013-01-01 04:12:00,37.0,-99.9,30.36,East,97,9.0,14.0,-999,-99.99,,,-99.99,,2013-01-01 12:12:00,
2013-01-01 04:22:00,38.0,-99.9,30.35,East,101,15.0,18.0,-999,-99.99,,,-99.99,,2013-01-01 12:22:00,
2013-01-01 04:33:00,37.0,-99.9,30.34,East,96,12.0,15.0,-999,-99.99,,,-99.99,,2013-01-01 12:33:00,
2013-01-01 04:43:00,37.0,-99.9,30.34,East,96,12.0,15.0,-999,-99.99,,,-99.99,,2013-01-01 12:43:00,
2013-01-01 04:53:00,37.0,-99.9,30.34,East,95,10.0,16.0,-999,-99.99,,,-99.99,,2013-01-01 12:53:00,
2013-01-01 05:03:00,37.0,-99.9,30.34,East,90,7.0,15.0,-999,-99.99,,,-99.99,,2013-01-01 13:03:00,
2013-01-01 05:12:00,37.0,-99.9,30.34,East,87,7.0,14.0,-999,-99.99,,,-99.99,,2013-01-01 13:12:00,
2013-01-01 05:22:00,37.0,-99.9,30.34,East,100,10.0,15.0,-999,-99.99,,,-99.99,,2013-01-01 13:22:00,
2013-01-01 05:33:00,37.0,-99.9,30.35,East,101,10.0,15.0,-999,-99.99,,,-99.99,,2013-01-01 13:33:00,
2013-01-01 05:43:00,37.0,-99.9,30.35,East,91,8.0,12.0,-999,-99.99,,,-99.99,,2013-01-01 13:43:00,
2013-01-01 05:53:00,36.0,-99.9,30.35,East,87,9.0,12.0,-999,-99.99,,,-99.99,,2013-01-01 13:53:00,
2013-01-01 06:03:00,36.0,-99.9,30.35,East,91,12.0,16.0,-999,-99.99,,,-99.99,,2013-01-01 14:03:00,
2013-01-01 06:12:00,36.0,-99.9,30.35,East,94,12.0,17.0,-999,-99.99,,,-99.99,,2013-01-01 14:12:00,
2013-01-01 06:22:00,36.0,-99.9,30.35,East,95,10.0,14.0,-999,-99.99,,,-99.99,,2013-01-01 14:22:00,
2013-01-01 06:33:00,36.0,-99.9,30.36,East,100,12.0,15.0,-999,-99.99,,,-99.99,,2013-01-01 14:33:00,
2013-01-01 06:43:00,36.0,-99.9,30.37,East,96,11.0,14.0,-999,-99.99,,,-99.99,,2013-01-01 14:43:00,
2013-01-01 06:53:00,36.0,-99.9,30.37,East,98,10.0,14.0,-999,-99.99,,,-99.99,,2013-01-01 14:53:00,
2013-01-01 07:03:00,36.0,-99.9,30.37,East,101,14.0,17.0,-999,-99.99,,,-99.99,,2013-01-01 15:03:00,
2013-01-01 07:13:00,36.0,-99.9,30.37,ESE,104,12.0,16.0,-999,-99.99,,,-99.99,,2013-01-01 15:13:00,
2013-01-01 07:22:00,36.0,-99.9,30.37,ESE,105,14.0,15.0,-999,-99.99,,,-99.99,,2013-01-01 15:22:00,
2013-01-01 07:33:00,35.0,-99.9,30.36,East,98,12.0,16.0,-999,-99.99,,,-99.99,,2013-01-01 15:33:00,
2013-01-01 07:43:00,35.0,-99.9,30.36,East,98,12.0,16.0,-999,-99.99,,,-99.99,,2013-01-01 15:43:00,
2013-01-01 07:53:00,35.0,-99.9,30.37,East,98,10.0,14.0,-999,-99.99,,,-99.99,,2013-01-01 15:53:00,
2013-01-01 08:02:00,36.0,-99.9,30.37,ESE,104,13.0,16.0,-999,-99.99,,,-99.99,,2013-01-01 16:02:00,
2013-01-01 08:12:00,35.0,-99.9,30.37,East,96,11.0,16.0,-999,-99.99,,,-99.99,,2013-01-01 16:12:00,
2013-01-01 08:23:00,35.0,-99.9,30.37,East,94,12.0,16.0,-999,-99.99,,,-99.99,,2013-01-01 16:23:00,
2013-01-01 08:33:00,35.0,-99.9,30.38,East,93,13.0,17.0,-999,-99.99,,,-99.99,,2013-01-01 16:33:00,
2013-01-01 08:43:00,35.0,-99.9,30.38,East,97,13.0,17.0,-999,-99.99,,,-99.99,,2013-01-01 16:43:00,
2013-01-01 08:53:00,35.0,-99.9,30.38,East,95,13.0,18.0,-999,-99.99,,,-99.99,,2013-01-01 16:53:00,
2013-01-01 09:03:00,36.0,-99.9,30.38,East,98,13.0,17.0,-999,-99.99,,,-99.99,,2013-01-01 17:03:00,
2013-01-01 09:12:00,36.0,-99.9,30.38,East,99,13.0,16.0,-999,-99.99,,,-99.99,,2013-01-01 17:12:00,
2013-01-01 09:23:00,37.0,-99.9,30.37,East,93,10.0,15.0,-999,-99.99,,,-99.99,,2013-01-01 17:23:00,
2013-01-01 09:33:00,37.0,-99.9,30.37,East,99,13.0,17.0,-999,-99.99,,,-99.99,,2013-01-01 17:33:00,
2013-01-01 09:43:00,37.0,-99.9,30.37,East,93,13.0,17.0,-999,-99.99,,,-99.99,,2013-01-01 17:43:00,
2013-01-01 09:53:00,37.0,-99.9,30.38,East,98,13.0,20.0,-999,-99.99,,,-99.99,,2013-01-01 17:53:00,
2013-01-01 10:03:00,38.0,-99.9,30.38,East,94,11.0,22.0,-999,-99.99,,,-99.99,,2013-01-01 18:03:00,
2013-01-01 10:13:00,38.0,-99.9,30.38,East,94,15.0,21.0,-999,-99.99,,,-99.99,,2013-01-01 18:13:00,
2013-01-01 10:23:00,38.0,-99.9,30.38,East,99,18.0,22.0,-999,-99.99,,,-99.99,,2013-01-01 18:23:00,
2013-01-01 10:33:00,38.0,-99.9,30.38,East,96,15.0,21.0,-999,-99.99,,,-99.99,,2013-01-01 18:33:00,
2013-01-01 10:43:00,38.0,-99.9,30.38,East,96,15.0,21.0,-999,-99.99,,,-99.99,,2013-01-01 18:43:00,
2013-01-01 10:53:00,39.0,-99.9,30.38,East,92,11.0,15.0,-999,-99.99,,,-99.99,,2013-01-01 18:53:00,
2013-01-01 11:02:00,39.0,-99.9,30.38,ESE,107,12.0,17.0,-999,-99.99,,,-99.99,,2013-01-01 19:02:00,
2013-01-01 11:12:00,40.0,-99.9,30.37,East,97,15.0,19.0,-999,-99.99,,,-99.99,,2013-01-01 19:12:00,
2013-01-01 11:22:00,40.0,-99.9,30.37,East,95,12.0,16.0,-999,-99.99,,,-99.99,,2013-01-01 19:22:00,
2013-01-01 11:33:00,40.0,-99.9,30.37,East,93,11.0,15.0,-999,-99.99,,,-99.99,,2013-01-01 19:33:00,
2013-01-01 11:43:00,41.0,-99.9,30.36,East,97,13.0,20.0,-999,-99.99,,,-99.99,,2013-01-01 19:43:00,
2013-01-01 11:53:00,41.0,-99.9,30.36,East,93,11.0,16.0,-999,-99.99,,,-99.99,,2013-01-01 19:53:00,
2013-01-01 12:02:00,42.0,-99.9,30.36,East,96,9.0,16.0,-999,-99.99,,,-99.99,,2013-01-01 20:02:00,
2013-01-01 12:13:00,42.0,-99.9,30.36,East,91,5.0,11.0,-999,-99.99,,,-99.99,,2013-01-01 20:13:00,
2013-01-01 12:23:00,42.0,-99.9,30.35,East,90,8.0,12.0,-999,-99.99,,,-99.99,,2013-01-01 20:23:00,
2013-01-01 12:32:00,43.0,-99.9,30.35,East,89,6.0,11.0,-999,-99.99,,,-99.99,,2013-01-01 20:32:00,
2013-01-01 12:43:00,43.0,-99.9,30.35,East,86,8.0,12.0,-999,-99.99,,,-99.99,,2013-01-01 20:43:00,
2013-01-01 12:53:00,43.0,-99.9,30.34,East,91,9.0,13.0,-999,-99.99,,,-99.99,,2013-01-01 20:53:00,
2013-01-01 13:03:00,43.0,-99.9,30.34,East,86,7.0,11.0,-999,-99.99,,,-99.99,,2013-01-01 21:03:00,
2013-01-01 13:13:00,44.0,-99.9,30.33,East,87,8.0,13.0,-999,-99.99,,,-99.99,,2013-01-01 21:13:00,
2013-01-01 13:22:00,43.0,-99.9,30.32,East,88,9.0,14.0,-999,-99.99,,,-99.99,,2013-01-01 21:22:00,
2013-01-01 13:33:00,44.0,-99.9,30.32,East,91,9.0,15.0,-999,-99.99,,,-99.99,,2013-01-01 21:33:00,
2013-01-01 13:43:00,44.0,-99.9,30.32,East,92,8.0,11.0,-999,-99.99,,,-99.99,,2013-01-01 21:43:00,
2013-01-01 13:53:00,44.0,-99.9,30.31,East,100,12.0,15.0,-999,-99.99,,,-99.99,,2013-01-01 21:53:00,
2013-01-01 14:03:00,44.0,-99.9,30.31,East,96,12.0,18.0,-999,-99.99,,,-99.99,,2013-01-01 22:03:00,
2013-01-01 14:12:00,44.0,-99.9,30.31,East,97,11.0,17.0,-999,-99.99,,,-99.99,,2013-01-01 22:12:00,
2013-01-01 14:23:00,45.0,-99.9,30.31,East,94,7.0,13.0,-999,-99.99,,,-99.99,,2013-01-01 22:23:00,
2013-01-01 14:33:00,45.0,-99.9,30.31,East,99,9.0,13.0,-999,-99.99,,,-99.99,,2013-01-01 22:33:00,
2013-01-01 14:43:00,45.0,-99.9,30.32,East,100,12.0,15.0,-999,-99.99,,,-99.99,,2013-01-01 22:43:00,
2013-01-01 14:53:00,45.0,-99.9,30.32,East,92,6.0,11.0,-999,-99.99,,,-99.99,,2013-01-01 22:53:00,
2013-01-01 15:03:00,45.0,-99.9,30.32,ESE,103,13.0,16.0,-999,-99.99,,,-99.99,,2013-01-01 23:03:00,
2013-01-01 15:13:00,45.0,-99.9,30.32,East,95,11.0,16.0,-999,-99.99,,,-99.99,,2013-01-01 23:13:00,
2013-01-01 15:22:00,45.0,-99.9,30.32,ESE,105,13.0,16.0,-999,-99.99,,,-99.99,,2013-01-01 23:22:00,
2013-01-01 15:33:00,45.0,-99.9,30.32,East,101,14.0,17.0,-999,-99.99,,,-99.99,,2013-01-01 23:33:00,
2013-01-01 15:42:00,45.0,-99.9,30.31,East,98,14.0,19.0,-999,-99.99,,,-99.99,,2013-01-01 23:42:00,
2013-01-01 15:53:00,45.0,-99.9,30.31,ESE,102,17.0,20.0,-999,-99.99,,,-99.99,,2013-01-01 23:53:00,
2013-01-01 16:03:00,44.0,-99.9,30.31,East,100,17.0,19.0,-999,-99.99,,,-99.99,,2013-01-02 00:03:00,
2013-01-01 16:12:00,44.0,-99.9,30.31,East,99,15.0,19.0,-999,-99.99,,,-99.99,,2013-01-02 00:12:00,
2013-01-01 16:22:00,44.0,-99.9,30.31,East,92,14.0,22.0,-999,-99.99,,,-99.99,,2013-01-02 00:22:00,
2013-01-01 16:33:00,44.0,-99.9,30.30,East,98,15.0,19.0,-999,-99.99,,,-99.99,,2013-01-02 00:33:00,
2013-01-01 16:43:00,44.0,-99.9,30.30,East,97,15.0,19.0,-999,-99.99,,,-99.99,,2013-01-02 00:43:00,
2013-01-01 16:53:00,44.0,-99.9,30.30,East,99,17.0,23.0,-999,-99.99,,,-99.99,,2013-01-02 00:53:00,
2013-01-01 17:02:00,43.0,-99.9,30.30,East,95,12.0,19.0,-999,-99.99,,,-99.99,,2013-01-02 01:02:00,
2013-01-01 17:12:00,43.0,-99.9,30.30,East,98,12.0,18.0,-999,-99.99,,,-99.99,,2013-01-02 01:12:00,
2013-01-01 17:22:00,42.0,-99.9,30.30,East,97,15.0,19.0,-999,-99.99,,,-99.99,,2013-01-02 01:22:00,
2013-01-01 17:33:00,42.0,-99.9,30.29,East,98,17.0,22.0,-999,-99.99,,,-99.99,,2013-01-02 01:33:00,
2013-01-01 17:42:00,42.0,-99.9,30.29,East,97,15.0,20.0,-999,-99.99,,,-99.99,,2013-01-02 01:42:00,
2013-01-01 17:53:00,42.0,-99.9,30.30,East,100,17.0,21.0,-999,-99.99,,,-99.99,,2013-01-02 01:53:00,
2013-01-01 18:02:00,42.0,-99.9,30.29,East,97,16.0,19.0,-999,-99.99,,,-99.99,,2013-01-02 02:02:00,
2013-01-01 18:12:00,41.0,-99.9,30.29,East,92,14.0,18.0,-999,-99.99,,,-99.99,,2013-01-02 02:12:00,
2013-01-01 18:22:00,41.0,-99.9,30.29,East,101,13.0,16.0,-999,-99.99,,,-99.99,,2013-01-02 02:22:00,
2013-01-01 18:33:00,41.0,-99.9,30.29,East,98,14.0,17.0,-999,-99.99,,,-99.99,,2013-01-02 02:33:00,
2013-01-01 18:43:00,41.0,-99.9,30.28,East,97,15.0,20.0,-999,-99.99,,,-99.99,,2013-01-02 02:43:00,
2013-01-01 18:53:00,41.0,-99.9,30.28,East,98,15.0,21.0,-999,-99.99,,,-99.99,,2013-01-02 02:53:00,
2013-01-01 19:02:00,41.0,-99.9,30.28,East,97,16.0,20.0,-999,-99.99,,,-99.99,,2013-01-02 03:02:00,
2013-01-01 19:12:00,41.0,-99.9,30.28,East,99,17.0,24.0,-999,-99.99,,,-99.99,,2013-01-02 03:12:00,
2013-01-01 19:22:00,41.0,-99.9,30.27,East,93,17.0,21.0,-999,-99.99,,,-99.99,,2013-01-02 03:22:00,
2013-01-01 19:32:00,41.0,-99.9,30.27,East,95,21.0,26.0,-999,-99.99,,,-99.99,,2013-01-02 03:32:00,
2013-01-01 19:42:00,41.0,-99.9,30.27,East,93,19.0,26.0,-999,-99.99,,,-99.99,,2013-01-02 03:42:00,
2013-01-01 19:53:00,41.0,-99.9,30.27,East,95,19.0,26.0,-999,-99.99,,,-99.99,,2013-01-02 03:53:00,
2013-01-01 20:03:00,41.0,-99.9,30.26,East,89,17.0,21.0,-999,-99.99,,,-99.99,,2013-01-02 04:03:00,
2013-01-01 20:12:00,41.0,-99.9,30.26,East,92,17.0,24.0,-999,-99.99,,,-99.99,,2013-01-02 04:12:00,
2013-01-01 20:22:00,41.0,-99.9,30.26,East,89,18.0,21.0,-999,-99.99,,,-99.99,,2013-01-02 04:22:00,
2013-01-01 20:33:00,41.0,-99.9,30.26,East,88,17.0,21.0,-999,-99.99,,,-99.99,,2013-01-02 04:33:00,
2013-01-01 20:42:00,41.0,-99.9,30.25,East,89,17.0,22.0,-999,-99.99,,,-99.99,,2013-01-02 04:42:00,
2013-01-01 20:53:00,41.0,-99.9,30.25,East,92,20.0,24.0,-999,-99.99,,,-99.99,,2013-01-02 04:53:00,
2013-01-01 21:03:00,42.0,-99.9,30.24,East,94,19.0,30.0,-999,-99.99,,,-99.99,,2013-01-02 05:03:00,
2013-01-01 21:12:00,42.0,-99.9,30.24,East,89,19.0,24.0,-999,-99.99,,,-99.99,,2013-01-02 05:12:00,
2013-01-01 21:22:00,41.0,-99.9,30.24,East,91,18.0,25.0,-999,-99.99,,,-99.99,,2013-01-02 05:22:00,
2013-01-01 21:33:00,41.0,-99.9,30.24,East,94,19.0,24.0,-999,-99.99,,,-99.99,,2013-01-02 05:33:00,
2013-01-01 21:43:00,42.0,-99.9,30.24,East,89,21.0,27.0,-999,-99.99,,,-99.99,,2013-01-02 05:43:00,
2013-01-01 21:53:00,42.0,-99.9,30.24,East,96,21.0,29.0,-999,-99.99,,,-99.99,,2013-01-02 05:53:00,
2013-01-01 22:02:00,42.0,-99.9,30.23,East,99,23.0,30.0,-999,-99.99,,,-99.99,,2013-01-02 06:02:00,
2013-01-01 22:12:00,42.0,-99.9,30.23,East,96,22.0,32.0,-999,-99.99,,,-99.99,,2013-01-02 06:12:00,
2013-01-01 22:22:00,41.0,-99.9,30.23,East,97,24.0,31.0,-999,-99.99,,,-99.99,,2013-01-02 06:22:00,
2013-01-01 22:33:00,41.0,-99.9,30.23,East,94,22.0,30.0,-999,-99.99,,,-99.99,,2013-01-02 06:33:00,
2013-01-01 22:43:00,41.0,-99.9,30.23,East,96,24.0,32.0,-999,-99.99,,,-99.99,,2013-01-02 06:43:00,
2013-01-01 22:53:00,41.0,-99.9,30.22,East,94,22.0,30.0,-999,-99.99,,,-99.99,,2013-01-02 06:53:00,
2013-01-01 23:02:00,41.0,-99.9,30.22,East,93,20.0,28.0,-999,-99.99,,,-99.99,,2013-01-02 07:02:00,
2013-01-01 23:12:00,41.0,-99.9,30.22,East,91,20.0,27.0,-999,-99.99,,,-99.99,,2013-01-02 07:12:00,
2013-01-01 23:22:00,41.0,-99.9,30.22,East,93,20.0,25.0,-999,-99.99,,,-99.99,,2013-01-02 07:22:00,
2013-01-01 23:32:00,41.0,-99.9,30.23,East,90,19.0,25.0,-999,-99.99,,,-99.99,,2013-01-02 07:32:00,
2013-01-01 23:42:00,41.0,-99.9,30.23,East,96,19.0,26.0,-999,-99.99,,,-99.99,,2013-01-02 07:42:00,
2013-01-01 23:52:00,41.0,-99.9,30.24,East,97,17.0,22.0,-999,-99.99,,,-99.99,,2013-01-02 07:52:00,